createdAt,value
2018-06-14T00:04:21.803Z,15.30
2018-06-14T00:06:50.551Z,15.30
2018-06-14T00:09:19.411Z,15.30
2018-06-14T00:11:48.091Z,15.30
2018-06-14T00:14:17.153Z,15.30
2018-06-14T00:16:46.130Z,15.30
2018-06-14T00:19:14.924Z,15.30
2018-06-14T00:21:43.802Z,15.30
2018-06-14T00:26:40.943Z,15.30
2018-06-14T00:29:09.920Z,15.30
2018-06-14T00:31:38.930Z,15.30
2018-06-14T00:34:07.852Z,15.30
2018-06-14T00:36:36.742Z,15.30
2018-06-14T00:39:07.190Z,15.30
2018-06-14T00:41:36.149Z,15.40
2018-06-14T00:44:05.155Z,15.40
2018-06-14T00:49:02.359Z,15.40
2018-06-14T00:51:31.283Z,15.40
2018-06-14T00:54:00.115Z,15.40
2018-06-14T00:56:30.399Z,15.50
2018-06-14T00:58:59.318Z,15.50
2018-06-14T01:01:28.215Z,15.40
2018-06-14T01:03:57.169Z,15.40
2018-06-14T01:06:25.803Z,15.40
2018-06-14T01:08:54.431Z,15.40
2018-06-14T01:11:23.159Z,15.40
2018-06-14T01:13:52.074Z,15.40
2018-06-14T01:16:20.724Z,15.40
2018-06-14T01:18:49.644Z,15.40
2018-06-14T01:21:18.486Z,15.30
2018-06-14T01:23:47.375Z,15.40
2018-06-14T01:26:16.146Z,15.40
2018-06-14T01:28:45.115Z,15.40
2018-06-14T01:31:14.179Z,15.40
2018-06-14T01:33:43.011Z,15.40
2018-06-14T01:36:12.018Z,15.30
2018-06-14T01:38:40.916Z,15.30
2018-06-14T01:41:09.766Z,15.30
2018-06-14T01:43:38.811Z,15.30
2018-06-14T01:46:07.748Z,15.30
2018-06-14T01:48:36.595Z,15.30
2018-06-14T01:51:05.353Z,15.30
2018-06-14T01:53:34.178Z,15.30
2018-06-14T01:56:02.937Z,15.30
2018-06-14T01:58:31.949Z,15.30
2018-06-14T02:01:01.250Z,15.30
2018-06-14T02:03:30.501Z,15.30
2018-06-14T02:05:59.443Z,15.30
2018-06-14T02:08:28.399Z,15.20
2018-06-14T02:10:57.315Z,15.30
2018-06-14T02:13:26.097Z,15.30
2018-06-14T02:15:55.022Z,15.20
2018-06-14T02:18:23.670Z,15.20
2018-06-14T02:20:52.491Z,15.20
2018-06-14T02:23:21.273Z,15.20
2018-06-14T02:25:50.110Z,15.20
2018-06-14T02:28:18.934Z,15.20
2018-06-14T02:30:47.811Z,15.20
2018-06-14T02:33:16.955Z,15.20
2018-06-14T02:35:45.744Z,15.20
2018-06-14T02:38:14.524Z,15.20
2018-06-14T02:43:11.992Z,15.20
2018-06-14T02:45:40.851Z,15.20
2018-06-14T02:48:09.872Z,15.20
2018-06-14T02:50:38.508Z,15.20
2018-06-14T02:53:07.333Z,15.20
2018-06-14T02:55:36.198Z,15.20
2018-06-14T02:58:05.292Z,15.20
2018-06-14T03:00:34.136Z,15.20
2018-06-14T03:03:03.100Z,15.20
2018-06-14T03:05:32.089Z,15.20
2018-06-14T03:08:00.848Z,15.20
2018-06-14T03:10:29.877Z,15.20
2018-06-14T03:12:58.765Z,15.20
2018-06-14T03:15:27.720Z,15.20
2018-06-14T03:17:56.698Z,15.20
2018-06-14T03:20:27.550Z,15.20
2018-06-14T03:22:57.386Z,15.20
2018-06-14T03:25:26.376Z,15.20
2018-06-14T03:27:54.977Z,15.20
2018-06-14T03:30:23.891Z,15.30
2018-06-14T03:32:52.943Z,15.20
2018-06-14T03:35:22.274Z,15.20
2018-06-14T03:37:51.270Z,15.20
2018-06-14T03:42:48.463Z,15.20
2018-06-14T03:45:22.321Z,15.30
2018-06-14T03:47:51.739Z,15.20
2018-06-14T03:50:20.631Z,15.20
2018-06-14T03:52:49.767Z,15.20
2018-06-14T03:55:18.576Z,15.20
2018-06-14T03:57:47.370Z,15.20
2018-06-14T04:00:16.278Z,15.20
2018-06-14T04:02:45.251Z,15.20
2018-06-14T04:05:14.144Z,15.10
2018-06-14T04:07:42.930Z,15.10
2018-06-14T04:10:11.795Z,15.00
2018-06-14T04:12:40.796Z,15.00
2018-06-14T04:15:09.477Z,15.00
2018-06-14T04:17:38.089Z,15.00
2018-06-14T04:20:07.162Z,15.00
2018-06-14T04:22:36.113Z,15.00
2018-06-14T04:25:05.055Z,15.00
2018-06-14T04:27:33.875Z,15.00
2018-06-14T04:30:02.932Z,15.00
2018-06-14T04:32:31.707Z,15.00
2018-06-14T04:35:00.503Z,15.10
2018-06-14T04:37:29.495Z,15.10
2018-06-14T04:42:26.678Z,15.20
2018-06-14T04:44:55.527Z,15.20
2018-06-14T04:47:24.562Z,15.30
2018-06-14T04:49:53.281Z,15.30
2018-06-14T04:52:21.965Z,15.30
2018-06-14T04:54:50.737Z,15.30
2018-06-14T04:57:19.554Z,15.40
2018-06-14T04:59:48.628Z,15.40
2018-06-14T05:02:17.703Z,15.30
2018-06-14T05:04:46.625Z,15.30
2018-06-14T05:07:15.491Z,15.30
2018-06-14T05:09:44.430Z,15.40
2018-06-14T05:12:13.276Z,15.40
2018-06-14T05:14:42.139Z,15.40
2018-06-14T05:17:10.872Z,15.40
2018-06-14T05:19:39.618Z,15.40
2018-06-14T05:22:08.360Z,15.40
2018-06-14T05:24:37.483Z,15.40
2018-06-14T05:27:06.532Z,15.40
2018-06-14T05:29:35.681Z,15.40
2018-06-14T05:32:04.675Z,15.50
2018-06-14T05:34:33.682Z,15.40
2018-06-14T05:37:02.444Z,15.40
2018-06-14T05:39:31.040Z,15.40
2018-06-14T05:41:59.943Z,15.50
2018-06-14T05:44:28.851Z,15.50
2018-06-14T05:46:57.520Z,15.50
2018-06-14T05:49:26.491Z,15.50
2018-06-14T05:51:55.103Z,15.60
2018-06-14T05:54:23.977Z,15.60
2018-06-14T05:56:52.896Z,15.60
2018-06-14T05:59:21.663Z,15.60
2018-06-14T06:01:50.534Z,15.70
2018-06-14T06:04:19.634Z,15.70
2018-06-14T06:06:48.545Z,15.70
2018-06-14T06:09:17.552Z,15.70
2018-06-14T06:12:01.629Z,15.70
2018-06-14T06:14:30.366Z,15.70
2018-06-14T06:16:59.039Z,15.70
2018-06-14T06:19:27.752Z,15.70
2018-06-14T06:21:56.555Z,15.70
2018-06-14T06:24:25.262Z,15.80
2018-06-14T06:26:53.950Z,15.80
2018-06-14T06:29:22.674Z,15.80
2018-06-14T06:31:51.401Z,15.80
2018-06-14T06:34:20.162Z,15.80
2018-06-14T06:36:48.918Z,15.90
2018-06-14T06:39:17.628Z,15.90
2018-06-14T06:41:46.311Z,15.90
2018-06-14T06:44:15.011Z,15.90
2018-06-14T06:46:43.665Z,16.00
2018-06-14T06:49:12.342Z,16.00
2018-06-14T06:51:40.914Z,16.10
2018-06-14T06:54:09.589Z,16.10
2018-06-14T06:56:38.349Z,16.00
2018-06-14T06:59:06.964Z,16.10
2018-06-14T07:01:35.637Z,16.10
2018-06-14T07:04:04.311Z,16.10
2018-06-14T07:06:33.117Z,16.10
2018-06-14T07:09:01.722Z,16.20
2018-06-14T07:11:30.426Z,16.20
2018-06-14T07:13:59.030Z,16.20
2018-06-14T07:16:27.731Z,16.30
2018-06-14T07:18:56.587Z,16.30
2018-06-14T07:21:25.268Z,16.30
2018-06-14T07:23:53.938Z,16.40
2018-06-14T07:26:22.663Z,16.40
2018-06-14T07:28:51.378Z,16.40
2018-06-14T07:31:20.033Z,16.50
2018-06-14T07:33:48.730Z,16.50
2018-06-14T07:36:17.403Z,16.50
2018-06-14T07:38:46.120Z,16.40
2018-06-14T07:41:14.843Z,16.40
2018-06-14T07:43:43.599Z,16.40
2018-06-14T07:46:12.323Z,16.40
2018-06-14T07:48:40.946Z,16.40
2018-06-14T07:51:10.062Z,16.40
2018-06-14T07:53:38.923Z,16.50
2018-06-14T07:56:07.649Z,16.50
2018-06-14T07:58:36.383Z,16.60
2018-06-14T08:01:05.027Z,16.60
2018-06-14T08:03:33.740Z,16.60
2018-06-14T08:06:02.395Z,16.60
2018-06-14T08:08:31.050Z,16.70
2018-06-14T08:10:59.796Z,16.70
2018-06-14T08:13:28.534Z,16.70
2018-06-14T08:15:57.172Z,16.70
2018-06-14T08:18:25.887Z,16.70
2018-06-14T08:20:54.577Z,16.70
2018-06-14T08:23:23.323Z,16.70
2018-06-14T08:25:51.943Z,16.70
2018-06-14T08:28:20.604Z,16.80
2018-06-14T08:30:49.363Z,16.80
2018-06-14T08:33:18.004Z,16.80
2018-06-14T08:35:46.695Z,16.80
2018-06-14T08:38:15.399Z,16.80
2018-06-14T08:40:44.075Z,16.80
2018-06-14T08:43:12.763Z,16.90
2018-06-14T08:45:41.442Z,16.90
2018-06-14T08:48:10.230Z,16.90
2018-06-14T08:50:39.014Z,16.90
2018-06-14T08:53:07.849Z,16.90
2018-06-14T08:55:36.578Z,16.90
2018-06-14T08:58:05.505Z,16.90
2018-06-14T09:00:34.155Z,17.00
2018-06-14T09:03:02.813Z,16.90
2018-06-14T09:05:31.506Z,17.00
2018-06-14T09:08:00.126Z,17.00
2018-06-14T09:10:28.770Z,17.00
2018-06-14T09:12:57.458Z,17.00
2018-06-14T09:15:26.208Z,17.00
2018-06-14T09:17:54.915Z,17.00
2018-06-14T09:20:23.751Z,17.00
2018-06-14T09:22:52.674Z,17.00
2018-06-14T09:25:21.295Z,17.10
2018-06-14T09:27:50.031Z,17.10
2018-06-14T09:30:18.722Z,17.10
2018-06-14T09:32:47.411Z,17.10
2018-06-14T09:35:16.112Z,17.20
2018-06-14T09:37:44.823Z,17.20
2018-06-14T09:40:13.532Z,17.20
2018-06-14T09:42:42.288Z,17.30
2018-06-14T09:45:10.968Z,17.30
2018-06-14T09:47:39.692Z,17.40
2018-06-14T09:50:08.359Z,17.50
2018-06-14T09:52:37.023Z,17.50
2018-06-14T09:55:05.762Z,17.50
2018-06-14T09:57:34.483Z,17.50
2018-06-14T10:00:03.288Z,17.50
2018-06-14T10:02:32.038Z,17.50
2018-06-14T10:05:00.744Z,17.50
2018-06-14T10:07:29.579Z,17.50
2018-06-14T10:09:58.600Z,17.50
2018-06-14T10:12:27.631Z,17.50
2018-06-14T10:14:56.561Z,17.60
2018-06-14T10:17:25.427Z,17.60
2018-06-14T10:19:54.109Z,17.60
2018-06-14T10:22:22.890Z,17.50
2018-06-14T10:24:51.666Z,17.60
2018-06-14T10:27:20.308Z,17.60
2018-06-14T10:29:49.093Z,17.70
2018-06-14T10:32:17.742Z,17.70
2018-06-14T10:34:46.447Z,17.70
2018-06-14T10:37:15.330Z,17.70
2018-06-14T10:39:44.071Z,17.70
2018-06-14T10:42:12.762Z,17.70
2018-06-14T10:44:41.416Z,17.70
2018-06-14T10:47:10.153Z,17.70
2018-06-14T10:49:38.832Z,17.70
2018-06-14T10:52:07.503Z,17.70
2018-06-14T10:54:36.188Z,17.80
2018-06-14T10:57:04.987Z,17.80
2018-06-14T10:59:33.639Z,17.80
2018-06-14T11:02:02.456Z,17.80
2018-06-14T11:04:31.158Z,17.80
2018-06-14T11:06:59.872Z,17.80
2018-06-14T11:09:28.555Z,17.80
2018-06-14T11:11:57.218Z,17.90
2018-06-14T11:14:25.874Z,17.90
2018-06-14T11:16:54.551Z,17.90
2018-06-14T11:19:23.247Z,17.80
2018-06-14T11:21:51.966Z,17.90
2018-06-14T11:24:20.707Z,17.80
2018-06-14T11:26:49.461Z,17.90
2018-06-14T11:29:18.246Z,17.90
2018-06-14T11:31:47.347Z,17.90
2018-06-14T11:34:16.229Z,17.90
2018-06-14T11:36:45.150Z,17.90
2018-06-14T11:39:14.078Z,17.90
2018-06-14T11:41:42.838Z,17.90
2018-06-14T11:44:11.536Z,17.90
2018-06-14T11:46:40.352Z,17.90
2018-06-14T11:49:09.195Z,17.90
2018-06-14T11:51:38.139Z,17.90
2018-06-14T11:54:06.978Z,17.90
2018-06-14T11:56:35.786Z,17.90
2018-06-14T11:59:04.613Z,17.90
2018-06-14T12:01:33.416Z,17.90
2018-06-14T12:04:02.371Z,17.90
2018-06-14T12:06:31.204Z,18.00
2018-06-14T12:08:59.806Z,18.00
2018-06-14T12:11:28.622Z,18.00
2018-06-14T12:13:57.388Z,18.00
2018-06-14T12:16:26.180Z,18.00
2018-06-14T12:18:55.144Z,18.10
2018-06-14T12:21:24.218Z,18.10
2018-06-14T12:23:53.138Z,18.10
2018-06-14T12:26:21.754Z,18.10
2018-06-14T12:28:50.705Z,18.10
2018-06-14T12:31:19.744Z,18.10
2018-06-14T12:33:48.847Z,18.10
2018-06-14T12:36:17.599Z,18.10
2018-06-14T12:38:46.595Z,18.10
2018-06-14T12:41:15.668Z,18.10
2018-06-14T12:43:44.316Z,18.10
2018-06-14T12:46:13.065Z,18.10
2018-06-14T12:48:41.986Z,18.10
2018-06-14T12:51:10.567Z,18.10
2018-06-14T12:53:39.448Z,18.10
2018-06-14T12:56:08.334Z,18.10
2018-06-14T12:58:37.059Z,18.10
2018-06-14T13:01:05.869Z,18.10
2018-06-14T13:03:34.786Z,18.20
2018-06-14T13:06:03.817Z,18.20
2018-06-14T13:08:32.613Z,18.20
2018-06-14T13:11:01.475Z,18.20
2018-06-14T13:13:30.277Z,18.10
2018-06-14T13:15:59.089Z,18.20
2018-06-14T13:18:28.056Z,18.20
2018-06-14T13:23:25.485Z,18.10
2018-06-14T13:25:54.316Z,18.20
2018-06-14T13:28:23.220Z,18.10
2018-06-14T13:30:52.039Z,18.20
2018-06-14T13:33:20.984Z,18.10
2018-06-14T13:35:49.947Z,18.10
2018-06-14T13:38:18.806Z,18.10
2018-06-14T13:40:47.658Z,18.10
2018-06-14T13:43:16.572Z,18.10
2018-06-14T13:45:45.554Z,18.00
2018-06-14T13:48:14.409Z,18.00
2018-06-14T13:50:43.352Z,18.00
2018-06-14T13:53:12.431Z,17.90
2018-06-14T13:55:41.163Z,17.90
2018-06-14T13:58:09.988Z,17.90
2018-06-14T14:00:38.731Z,17.90
2018-06-14T14:03:07.557Z,17.90
2018-06-14T14:05:36.527Z,17.90
2018-06-14T14:08:05.260Z,17.90
2018-06-14T14:10:34.195Z,17.90
2018-06-14T14:13:02.926Z,18.00
2018-06-14T14:15:31.847Z,18.00
2018-06-14T14:18:01.679Z,17.90
2018-06-14T14:20:30.727Z,18.00
2018-06-14T14:22:59.400Z,17.90
2018-06-14T14:25:28.418Z,18.00
2018-06-14T14:27:57.325Z,18.00
2018-06-14T14:30:26.275Z,18.00
2018-06-14T14:32:55.190Z,18.00
2018-06-14T14:35:23.911Z,18.00
2018-06-14T14:37:53.117Z,18.00
2018-06-14T14:40:21.887Z,18.00
2018-06-14T14:42:50.675Z,18.00
2018-06-14T14:45:19.419Z,18.00
2018-06-14T14:47:48.170Z,18.00
2018-06-14T14:50:16.961Z,18.00
2018-06-14T14:52:45.884Z,18.00
2018-06-14T14:55:14.650Z,18.00
2018-06-14T14:57:43.509Z,18.00
2018-06-14T15:00:12.341Z,18.00
2018-06-14T15:02:41.016Z,18.00
2018-06-14T15:05:09.676Z,18.00
2018-06-14T15:07:38.490Z,18.00
2018-06-14T15:10:07.190Z,18.00
2018-06-14T15:12:35.907Z,18.00
2018-06-14T15:15:04.723Z,18.00
2018-06-14T15:17:33.385Z,18.00
2018-06-14T15:20:02.158Z,18.00
2018-06-14T15:22:30.905Z,18.00
2018-06-14T15:24:59.722Z,18.00
2018-06-14T15:27:28.469Z,18.00
2018-06-14T15:29:57.206Z,18.00
2018-06-14T15:32:25.958Z,18.00
2018-06-14T15:34:54.813Z,18.00
2018-06-14T15:37:23.463Z,18.10
2018-06-14T15:39:52.278Z,18.20
2018-06-14T15:42:21.115Z,18.20
2018-06-14T15:44:50.016Z,18.20
2018-06-14T15:47:19.014Z,18.20
2018-06-14T15:49:47.839Z,18.20
2018-06-14T15:52:16.511Z,18.20
2018-06-14T15:54:50.441Z,18.20
2018-06-14T15:57:19.614Z,18.20
2018-06-14T15:59:48.643Z,18.20
2018-06-14T16:02:17.279Z,18.20
2018-06-14T16:04:46.193Z,18.20
2018-06-14T16:07:14.989Z,18.10
2018-06-14T16:09:43.897Z,18.20
2018-06-14T16:12:12.756Z,18.10
2018-06-14T16:14:41.579Z,18.10
2018-06-14T16:17:10.374Z,18.10
2018-06-14T16:19:39.405Z,18.10
2018-06-14T16:22:12.518Z,18.10
2018-06-14T16:24:41.368Z,18.10
2018-06-14T16:27:10.049Z,18.10
2018-06-14T16:29:38.721Z,18.10
2018-06-14T16:32:07.688Z,18.10
2018-06-14T16:34:36.697Z,18.20
2018-06-14T16:37:05.775Z,18.20
2018-06-14T16:39:34.621Z,18.20
2018-06-14T16:42:03.459Z,18.20
2018-06-14T16:44:32.303Z,18.20
2018-06-14T16:47:01.148Z,18.20
2018-06-14T16:49:30.005Z,18.20
2018-06-14T16:51:58.625Z,18.20
2018-06-14T16:54:27.507Z,18.20
2018-06-14T16:56:56.468Z,18.20
2018-06-14T16:59:25.389Z,18.30
2018-06-14T17:01:54.100Z,18.30
2018-06-14T17:04:22.754Z,18.30
2018-06-14T17:06:51.507Z,18.30
2018-06-14T17:09:20.347Z,18.30
2018-06-14T17:11:49.106Z,18.30
2018-06-14T17:14:18.052Z,18.30
2018-06-14T17:16:46.739Z,18.30
2018-06-14T17:19:15.418Z,18.30
2018-06-14T17:21:44.270Z,18.30
2018-06-14T17:24:13.053Z,18.30
2018-06-14T17:26:41.969Z,18.30
2018-06-14T17:29:10.849Z,18.20
2018-06-14T17:31:39.707Z,18.20
2018-06-14T17:34:08.716Z,18.20
2018-06-14T17:36:37.512Z,18.10
2018-06-14T17:39:07.929Z,18.10
2018-06-14T17:41:36.877Z,18.10
2018-06-14T17:44:05.591Z,18.10
2018-06-14T17:46:34.554Z,18.10
2018-06-14T17:49:03.241Z,18.10
2018-06-14T17:51:31.953Z,18.10
2018-06-14T17:54:00.860Z,18.10
2018-06-14T17:56:30.641Z,18.00
2018-06-14T17:58:59.600Z,18.00
2018-06-14T18:01:28.505Z,18.00
2018-06-14T18:03:57.475Z,17.90
2018-06-14T18:06:26.843Z,17.90
2018-06-14T18:08:55.855Z,17.90
2018-06-14T18:11:24.903Z,17.90
2018-06-14T18:13:53.659Z,17.90
2018-06-14T18:16:22.568Z,17.90
2018-06-14T18:18:51.403Z,17.80
2018-06-14T18:21:20.355Z,17.80
2018-06-14T18:23:49.287Z,17.80
2018-06-14T18:26:18.651Z,17.70
2018-06-14T18:28:47.890Z,17.70
2018-06-14T18:31:17.388Z,17.70
2018-06-14T18:33:46.115Z,17.70
2018-06-14T18:36:14.767Z,17.70
2018-06-14T18:38:43.579Z,17.60
2018-06-14T18:41:12.704Z,17.60
2018-06-14T18:43:41.526Z,17.60
2018-06-14T18:46:10.480Z,17.50
2018-06-14T18:48:39.347Z,17.50
2018-06-14T18:51:08.150Z,17.50
2018-06-14T18:53:37.078Z,17.50
2018-06-14T18:56:06.250Z,17.40
2018-06-14T18:58:35.875Z,17.30
2018-06-14T19:01:05.098Z,17.30
2018-06-14T19:03:34.023Z,17.30
2018-06-14T19:06:02.847Z,17.30
2018-06-14T19:08:31.758Z,17.20
2018-06-14T19:11:00.538Z,17.20
2018-06-14T19:13:29.415Z,17.10
2018-06-14T19:15:58.263Z,17.10
2018-06-14T19:18:27.199Z,17.00
2018-06-14T19:20:55.976Z,17.00
2018-06-14T19:23:24.839Z,17.00
2018-06-14T19:25:53.479Z,16.90
2018-06-14T19:28:22.291Z,16.90
2018-06-14T19:30:51.216Z,16.90
2018-06-14T19:33:20.207Z,16.80
2018-06-14T19:35:49.147Z,16.80
2018-06-14T19:38:18.192Z,16.80
2018-06-14T19:40:47.233Z,16.80
2018-06-14T19:43:16.095Z,16.80
2018-06-14T19:45:45.055Z,16.80
2018-06-14T19:48:13.810Z,16.70
2018-06-14T19:50:42.876Z,16.70
2018-06-14T19:53:11.708Z,16.60
2018-06-14T19:55:40.739Z,16.60
2018-06-14T19:58:09.868Z,16.60
2018-06-14T20:00:38.723Z,16.60
2018-06-14T20:03:07.619Z,16.60
2018-06-14T20:05:36.767Z,16.60
2018-06-14T20:08:05.776Z,16.50
2018-06-14T20:10:34.557Z,16.50
2018-06-14T20:13:03.479Z,16.50
2018-06-14T20:15:32.504Z,16.40
2018-06-14T20:18:01.380Z,16.40
2018-06-14T20:20:30.456Z,16.40
2018-06-14T20:22:59.163Z,16.30
2018-06-14T20:25:28.018Z,16.30
2018-06-14T20:27:56.682Z,16.30
2018-06-14T20:30:25.543Z,16.20
2018-06-14T20:32:54.256Z,16.10
2018-06-14T20:35:23.013Z,16.10
2018-06-14T20:37:51.675Z,16.10
2018-06-14T20:40:20.425Z,16.10
2018-06-14T20:42:49.167Z,16.10
2018-06-14T20:45:17.851Z,16.10
2018-06-14T20:47:46.631Z,16.10
2018-06-14T20:50:15.276Z,16.00
2018-06-14T20:52:44.022Z,15.90
2018-06-14T20:55:12.698Z,15.90
2018-06-14T20:57:41.514Z,15.90
2018-06-14T21:00:10.241Z,15.90
2018-06-14T21:02:38.951Z,15.90
2018-06-14T21:05:07.772Z,15.90
2018-06-14T21:07:36.575Z,15.90
2018-06-14T21:10:05.387Z,15.90
2018-06-14T21:12:34.187Z,15.90
2018-06-14T21:15:03.072Z,15.90
2018-06-14T21:17:31.756Z,15.90
2018-06-14T21:20:02.005Z,15.90
2018-06-14T21:22:30.945Z,15.90
2018-06-14T21:24:59.671Z,15.90
2018-06-14T21:27:28.387Z,15.90
2018-06-14T21:29:58.020Z,16.00
2018-06-14T21:32:33.102Z,15.90
2018-06-14T21:35:01.919Z,16.00
2018-06-14T21:37:30.854Z,15.90
2018-06-14T21:39:59.678Z,16.00
2018-06-14T21:44:56.782Z,16.00
2018-06-14T21:47:25.442Z,16.00
2018-06-14T21:49:54.127Z,16.00
2018-06-14T21:52:22.832Z,16.00
2018-06-14T21:54:51.542Z,15.90
2018-06-14T21:57:20.259Z,15.90
2018-06-14T21:59:49.078Z,15.90
2018-06-14T22:02:17.789Z,15.90
2018-06-14T22:04:46.478Z,15.90
2018-06-14T22:07:15.303Z,15.90
2018-06-14T22:09:45.157Z,15.80
2018-06-14T22:12:14.242Z,15.80
2018-06-14T22:14:42.900Z,15.70
2018-06-14T22:17:11.996Z,15.70
2018-06-14T22:19:41.203Z,15.70
2018-06-14T22:22:10.182Z,15.70
2018-06-14T22:24:39.130Z,15.70
2018-06-14T22:27:07.979Z,15.70
2018-06-14T22:29:36.957Z,15.60
2018-06-14T22:32:05.773Z,15.60
2018-06-14T22:34:45.705Z,15.60
2018-06-14T22:37:14.599Z,15.50
2018-06-14T22:39:43.666Z,15.40
2018-06-14T22:42:12.334Z,15.30
2018-06-14T22:44:41.343Z,15.30
2018-06-14T22:47:10.242Z,15.30
2018-06-14T22:49:39.259Z,15.30
2018-06-14T22:53:16.285Z,15.30
2018-06-14T22:55:44.967Z,15.30
2018-06-14T22:58:13.731Z,15.30
2018-06-14T23:00:50.191Z,15.30
2018-06-14T23:03:19.047Z,15.30
2018-06-14T23:05:47.841Z,15.20
2018-06-14T23:08:16.778Z,15.30
2018-06-14T23:10:56.547Z,15.20
2018-06-14T23:13:25.368Z,15.20
2018-06-14T23:15:54.341Z,15.10
2018-06-14T23:18:23.252Z,15.10
2018-06-14T23:20:52.220Z,15.10
2018-06-14T23:23:20.967Z,15.10
2018-06-14T23:25:49.789Z,15.10
2018-06-14T23:28:18.738Z,15.10
2018-06-14T23:30:48.692Z,15.10
2018-06-14T23:33:17.447Z,15.10
2018-06-14T23:35:46.104Z,15.10
2018-06-14T23:38:14.813Z,15.20
2018-06-14T23:40:43.493Z,15.10
2018-06-14T23:43:12.204Z,15.20
2018-06-14T23:45:40.936Z,15.20
2018-06-14T23:48:09.533Z,15.10
2018-06-14T23:50:38.179Z,15.20
2018-06-14T23:53:06.868Z,15.20
2018-06-14T23:55:35.553Z,15.10
2018-06-14T23:58:04.308Z,15.20
